createdAt,value
2022-12-24T00:00:06.976Z,11.16
2022-12-24T00:02:33.804Z,11.17
2022-12-24T00:05:01.287Z,10.61
2022-12-24T00:07:28.983Z,11.17
2022-12-24T00:09:55.639Z,10.97
2022-12-24T00:12:22.392Z,11.00
2022-12-24T00:14:48.887Z,11.07
2022-12-24T00:17:15.563Z,11.18
2022-12-24T00:19:43.220Z,11.14
2022-12-24T00:22:10.009Z,11.26
2022-12-24T00:24:36.535Z,11.05
2022-12-24T00:27:03.579Z,11.09
2022-12-24T00:29:30.152Z,10.84
2022-12-24T00:31:56.714Z,10.55
2022-12-24T00:34:24.696Z,10.54
2022-12-24T00:36:51.612Z,10.97
2022-12-24T00:39:18.696Z,11.09
2022-12-24T00:41:45.238Z,11.22
2022-12-24T00:44:11.902Z,11.06
2022-12-24T00:46:40.940Z,10.77
2022-12-24T00:49:08.576Z,11.07
2022-12-24T00:51:35.966Z,11.15
2022-12-24T00:54:03.333Z,10.90
2022-12-24T00:56:30.295Z,10.77
2022-12-24T00:58:57.134Z,11.06
2022-12-24T01:01:24.857Z,11.00
2022-12-24T01:03:52.283Z,10.55
2022-12-24T01:06:21.736Z,11.10
2022-12-24T01:08:51.368Z,11.15
2022-12-24T01:11:18.167Z,10.97
2022-12-24T01:13:44.709Z,11.15
2022-12-24T01:16:17.868Z,11.14
2022-12-24T01:18:44.561Z,11.11
2022-12-24T01:21:11.170Z,11.14
2022-12-24T01:23:37.847Z,10.57
2022-12-24T01:26:05.394Z,10.60
2022-12-24T01:28:33.042Z,10.53
2022-12-24T01:31:00.853Z,10.94
2022-12-24T01:33:30.642Z,10.82
2022-12-24T01:35:57.220Z,10.92
2022-12-24T01:38:23.805Z,10.99
2022-12-24T01:41:08.770Z,11.00
2022-12-24T01:43:35.400Z,10.97
2022-12-24T01:46:05.863Z,10.64
2022-12-24T01:48:47.106Z,11.04
2022-12-24T01:51:30.610Z,11.03
2022-12-24T01:54:10.112Z,10.70
2022-12-24T01:56:42.684Z,11.04
2022-12-24T01:59:13.167Z,11.13
2022-12-24T02:01:39.863Z,11.07
2022-12-24T02:04:19.677Z,10.76
2022-12-24T02:06:46.250Z,10.85
2022-12-24T02:09:12.816Z,10.76
2022-12-24T02:11:43.912Z,10.66
2022-12-24T02:14:12.233Z,10.18
2022-12-24T02:16:50.405Z,10.11
2022-12-24T02:19:42.328Z,10.39
2022-12-24T02:22:17.990Z,10.22
2022-12-24T02:25:02.628Z,10.00
2022-12-24T02:27:55.731Z,10.20
2022-12-24T02:30:23.439Z,10.21
2022-12-24T02:33:02.126Z,10.22
2022-12-24T02:35:44.542Z,10.34
2022-12-24T02:38:22.116Z,10.20
2022-12-24T02:41:10.529Z,10.23
2022-12-24T02:43:41.379Z,10.28
2022-12-24T02:46:12.883Z,10.30
2022-12-24T02:48:42.618Z,10.26
2022-12-24T02:51:11.182Z,10.35
2022-12-24T02:53:39.240Z,10.39
2022-12-24T02:56:23.631Z,10.54
2022-12-24T02:59:34.680Z,10.59
2022-12-24T03:02:04.302Z,10.68
2022-12-24T03:04:44.118Z,10.64
2022-12-24T03:07:21.398Z,10.60
2022-12-24T03:10:18.461Z,10.55
2022-12-24T03:12:50.534Z,10.51
2022-12-24T03:15:21.585Z,10.63
2022-12-24T03:17:51.316Z,10.68
2022-12-24T03:20:22.541Z,10.50
2022-12-24T03:22:50.189Z,10.48
2022-12-24T03:25:17.308Z,10.54
2022-12-24T03:27:44.708Z,10.43
2022-12-24T03:30:14.279Z,10.26
2022-12-24T03:32:41.472Z,9.72
2022-12-24T03:35:09.067Z,9.74
2022-12-24T03:37:35.816Z,10.13
2022-12-24T03:40:05.271Z,9.58
2022-12-24T03:42:31.909Z,10.02
2022-12-24T03:44:58.511Z,9.94
2022-12-24T03:47:25.065Z,10.02
2022-12-24T03:49:52.672Z,9.64
2022-12-24T03:52:19.263Z,10.13
2022-12-24T03:54:45.788Z,9.95
2022-12-24T03:57:12.415Z,9.91
2022-12-24T03:59:38.988Z,9.93
2022-12-24T04:02:05.767Z,9.70
2022-12-24T04:04:33.518Z,10.08
2022-12-24T04:07:00.497Z,9.87
2022-12-24T04:09:27.095Z,10.32
2022-12-24T04:11:53.611Z,10.31
2022-12-24T04:14:20.121Z,10.52
2022-12-24T04:16:46.772Z,10.69
2022-12-24T04:19:13.388Z,10.68
2022-12-24T04:21:39.940Z,10.73
2022-12-24T04:24:06.620Z,10.86
2022-12-24T04:26:33.213Z,10.71
2022-12-24T04:28:59.754Z,10.80
2022-12-24T04:31:26.298Z,10.74
2022-12-24T04:33:53.303Z,10.99
2022-12-24T04:36:20.607Z,10.57
2022-12-24T04:38:48.532Z,10.90
2022-12-24T04:41:23.351Z,10.55
2022-12-24T04:43:53.821Z,10.59
2022-12-24T04:46:26.055Z,10.63
2022-12-24T04:48:54.492Z,10.95
2022-12-24T04:51:21.512Z,10.98
2022-12-24T04:53:48.093Z,10.94
2022-12-24T04:56:20.658Z,11.07
2022-12-24T04:58:48.260Z,11.17
2022-12-24T05:01:18.849Z,11.05
2022-12-24T05:03:46.193Z,11.07
2022-12-24T05:06:17.200Z,10.83
2022-12-24T05:08:43.935Z,11.25
2022-12-24T05:11:14.234Z,11.17
2022-12-24T05:13:46.542Z,10.95
2022-12-24T05:16:15.901Z,11.32
2022-12-24T05:18:42.524Z,11.30
2022-12-24T05:21:11.053Z,10.85
2022-12-24T05:23:56.757Z,10.69
2022-12-24T05:26:34.565Z,10.89
2022-12-24T05:29:03.026Z,10.43
2022-12-24T05:31:31.375Z,10.86
2022-12-24T05:33:58.043Z,10.74
2022-12-24T05:36:24.884Z,10.77
2022-12-24T05:38:51.586Z,10.62
2022-12-24T05:41:18.641Z,11.00
2022-12-24T05:43:46.397Z,10.87
2022-12-24T05:46:15.893Z,10.86
2022-12-24T05:48:42.574Z,10.84
2022-12-24T05:51:12.122Z,10.80
2022-12-24T05:53:39.100Z,10.39
2022-12-24T05:56:18.392Z,10.96
2022-12-24T05:58:45.377Z,10.92
2022-12-24T06:01:12.821Z,10.72
2022-12-24T06:03:39.785Z,10.71
2022-12-24T06:06:09.754Z,10.73
2022-12-24T06:08:37.365Z,10.72
2022-12-24T06:11:07.582Z,10.04
2022-12-24T06:13:35.027Z,10.70
2022-12-24T06:16:03.789Z,10.57
2022-12-24T06:18:32.762Z,10.57
2022-12-24T06:21:00.682Z,10.52
2022-12-24T06:23:29.989Z,10.59
2022-12-24T06:25:59.189Z,10.53
2022-12-24T06:28:25.761Z,10.28
2022-12-24T06:30:57.132Z,10.46
2022-12-24T06:33:27.579Z,10.22
2022-12-24T06:35:54.171Z,10.57
2022-12-24T06:38:20.672Z,10.34
2022-12-24T06:40:47.757Z,10.63
2022-12-24T06:43:15.124Z,10.38
2022-12-24T06:45:48.547Z,10.14
2022-12-24T06:48:15.839Z,10.52
2022-12-24T06:50:42.853Z,10.10
2022-12-24T06:53:10.271Z,10.33
2022-12-24T06:55:37.319Z,10.03
2022-12-24T06:58:04.608Z,10.22
2022-12-24T07:00:31.305Z,10.34
2022-12-24T07:02:58.048Z,10.34
2022-12-24T07:05:24.694Z,10.43
2022-12-24T07:07:51.293Z,10.44
2022-12-24T07:10:19.542Z,10.51
2022-12-24T07:12:46.460Z,10.52
2022-12-24T07:15:13.887Z,10.42
2022-12-24T07:17:40.560Z,10.68
2022-12-24T07:20:12.245Z,10.77
2022-12-24T07:22:38.766Z,10.83
2022-12-24T07:25:05.776Z,10.71
2022-12-24T07:27:32.358Z,10.89
2022-12-24T07:29:58.867Z,10.79
2022-12-24T07:32:25.404Z,10.31
2022-12-24T07:34:51.963Z,10.76
2022-12-24T07:37:18.503Z,10.75
2022-12-24T07:39:45.289Z,10.68
2022-12-24T07:42:11.885Z,10.38
2022-12-24T07:44:39.567Z,10.73
2022-12-24T07:47:06.213Z,10.85
2022-12-24T07:49:32.831Z,10.73
2022-12-24T07:51:59.419Z,10.61
2022-12-24T07:54:26.067Z,10.75
2022-12-24T07:56:52.652Z,10.61
2022-12-24T07:59:19.154Z,10.55
2022-12-24T08:01:46.489Z,10.48
2022-12-24T08:04:13.531Z,10.32
2022-12-24T08:06:40.244Z,10.43
2022-12-24T08:09:07.126Z,10.51
2022-12-24T08:11:33.755Z,10.52
2022-12-24T08:14:00.274Z,10.21
2022-12-24T08:16:26.913Z,10.75
2022-12-24T08:18:53.478Z,10.73
2022-12-24T08:21:19.991Z,10.76
2022-12-24T08:23:47.692Z,10.89
2022-12-24T08:26:15.612Z,10.86
2022-12-24T08:28:42.498Z,10.56
2022-12-24T08:31:09.229Z,10.93
2022-12-24T08:33:35.882Z,11.06
2022-12-24T08:36:03.043Z,11.15
2022-12-24T08:38:29.567Z,11.13
2022-12-24T08:40:56.152Z,10.97
2022-12-24T08:43:23.416Z,11.21
2022-12-24T08:45:50.341Z,11.13
2022-12-24T08:48:17.311Z,11.25
2022-12-24T08:50:44.310Z,11.18
2022-12-24T08:53:11.041Z,11.03
2022-12-24T08:55:37.745Z,11.21
2022-12-24T08:58:04.465Z,11.18
2022-12-24T09:00:31.074Z,11.18
2022-12-24T09:02:58.045Z,11.31
2022-12-24T09:05:25.959Z,11.29
2022-12-24T09:07:52.698Z,11.45
2022-12-24T09:10:19.281Z,11.38
2022-12-24T09:12:45.775Z,11.06
2022-12-24T09:15:14.095Z,11.38
2022-12-24T09:17:41.102Z,10.98
2022-12-24T09:20:08.694Z,11.16
2022-12-24T09:22:37.387Z,11.59
2022-12-24T09:25:06.180Z,11.29
2022-12-24T09:27:32.945Z,11.79
2022-12-24T09:29:59.480Z,12.30
2022-12-24T09:32:25.993Z,12.49
2022-12-24T09:34:52.530Z,12.26
2022-12-24T09:37:19.362Z,11.91
2022-12-24T09:39:45.833Z,12.32
2022-12-24T09:42:27.918Z,12.04
2022-12-24T09:45:01.379Z,11.97
2022-12-24T09:47:52.763Z,11.98
2022-12-24T09:50:37.963Z,11.76
2022-12-24T09:53:12.971Z,11.90
2022-12-24T09:55:51.957Z,11.61
2022-12-24T09:58:34.949Z,12.13
2022-12-24T10:01:01.654Z,12.44
2022-12-24T10:03:28.447Z,12.38
2022-12-24T10:06:27.019Z,12.45
2022-12-24T10:09:01.813Z,12.46
2022-12-24T10:11:28.243Z,12.62
2022-12-24T10:14:16.500Z,13.29
2022-12-24T10:16:58.447Z,14.23
2022-12-24T10:20:07.532Z,14.91
2022-12-24T10:23:07.941Z,15.42
2022-12-24T10:25:43.192Z,14.79
2022-12-24T10:28:22.040Z,14.87
2022-12-24T10:30:53.894Z,14.50
2022-12-24T10:33:32.914Z,13.93
2022-12-24T10:35:59.544Z,13.78
2022-12-24T10:38:26.803Z,14.44
2022-12-24T10:40:56.379Z,14.45
2022-12-24T10:43:25.325Z,14.14
2022-12-24T10:45:56.700Z,14.26
2022-12-24T10:48:35.181Z,14.00
2022-12-24T10:51:21.903Z,13.71
2022-12-24T10:53:51.456Z,13.66
2022-12-24T10:56:20.387Z,12.95
2022-12-24T10:58:53.967Z,13.24
2022-12-24T11:01:41.525Z,12.52
2022-12-24T11:04:17.024Z,13.04
2022-12-24T11:07:01.543Z,12.90
2022-12-24T11:09:39.391Z,12.84
2022-12-24T11:12:15.514Z,12.94
2022-12-24T11:14:42.627Z,12.71
2022-12-24T11:17:20.664Z,12.52
2022-12-24T11:19:49.640Z,12.22
2022-12-24T11:22:24.736Z,12.35
2022-12-24T11:25:19.773Z,12.52
2022-12-24T11:27:51.706Z,12.53
2022-12-24T11:30:23.095Z,12.99
2022-12-24T11:33:09.848Z,13.13
2022-12-24T11:35:45.052Z,13.05
2022-12-24T11:38:17.704Z,13.01
2022-12-24T11:40:47.568Z,12.80
2022-12-24T11:43:18.038Z,13.13
2022-12-24T11:45:51.107Z,13.15
2022-12-24T11:48:34.756Z,13.35
2022-12-24T11:51:07.376Z,13.25
2022-12-24T11:54:09.416Z,13.21
2022-12-24T11:56:47.265Z,12.92
2022-12-24T11:59:33.974Z,13.11
2022-12-24T12:02:15.556Z,13.38
2022-12-24T12:04:46.013Z,13.71
2022-12-24T12:07:18.045Z,13.29
2022-12-24T12:09:50.561Z,12.85
2022-12-24T12:12:28.767Z,13.62
2022-12-24T12:15:00.702Z,13.58
2022-12-24T12:17:43.808Z,13.58
2022-12-24T12:20:31.223Z,13.80
2022-12-24T12:23:03.861Z,13.73
2022-12-24T12:25:36.366Z,13.89
2022-12-24T12:28:13.796Z,13.44
2022-12-24T12:30:41.048Z,13.27
2022-12-24T12:33:21.360Z,13.45
2022-12-24T12:35:49.017Z,13.71
2022-12-24T12:38:22.812Z,13.73
2022-12-24T12:41:05.463Z,14.18
2022-12-24T12:44:04.112Z,14.45
2022-12-24T12:46:54.892Z,14.30
2022-12-24T12:49:52.554Z,13.98
2022-12-24T12:52:37.829Z,14.44
2022-12-24T12:55:24.328Z,13.79
2022-12-24T12:57:56.230Z,13.73
2022-12-24T13:00:23.616Z,13.56
2022-12-24T13:03:12.519Z,13.26
2022-12-24T13:06:06.976Z,14.27
2022-12-24T13:09:09.240Z,14.63
2022-12-24T13:11:52.524Z,14.40
2022-12-24T13:14:27.950Z,14.51
2022-12-24T13:17:17.140Z,13.66
2022-12-24T13:20:05.275Z,13.48
2022-12-24T13:22:31.882Z,13.29
2022-12-24T13:24:58.499Z,12.71
2022-12-24T13:27:28.670Z,13.30
2022-12-24T13:30:06.957Z,13.52
2022-12-24T13:32:47.001Z,13.79
2022-12-24T13:35:19.541Z,14.12
2022-12-24T13:37:46.631Z,14.12
2022-12-24T13:40:21.864Z,13.74
2022-12-24T13:42:58.489Z,13.82
2022-12-24T13:45:34.252Z,14.07
2022-12-24T13:48:22.228Z,13.25
2022-12-24T13:50:52.807Z,12.88
2022-12-24T13:53:32.501Z,12.21
2022-12-24T13:56:29.983Z,12.44
2022-12-24T13:59:17.050Z,12.32
2022-12-24T14:01:44.940Z,12.30
2022-12-24T14:04:24.637Z,11.77
2022-12-24T14:06:54.397Z,12.23
2022-12-24T14:09:25.006Z,12.04
2022-12-24T14:12:03.700Z,11.80
2022-12-24T14:14:36.204Z,12.34
2022-12-24T14:17:26.815Z,12.41
2022-12-24T14:19:59.449Z,12.16
2022-12-24T14:22:28.744Z,12.04
2022-12-24T14:24:59.007Z,11.79
2022-12-24T14:27:38.961Z,11.22
2022-12-24T14:30:20.533Z,10.88
2022-12-24T14:32:48.150Z,11.46
2022-12-24T14:35:23.293Z,11.28
2022-12-24T14:38:00.436Z,11.14
2022-12-24T14:40:30.001Z,11.05
2022-12-24T14:43:14.083Z,11.12
2022-12-24T14:45:48.730Z,10.89
2022-12-24T14:48:27.114Z,10.92
2022-12-24T14:51:12.648Z,10.78
2022-12-24T14:53:54.306Z,10.59
2022-12-24T14:56:22.552Z,10.49
2022-12-24T14:58:49.849Z,10.30
2022-12-24T15:01:26.754Z,9.65
2022-12-24T15:04:11.614Z,10.08
2022-12-24T15:06:41.981Z,9.42
2022-12-24T15:09:19.373Z,9.54
2022-12-24T15:11:48.323Z,9.50
2022-12-24T15:14:17.152Z,9.29
2022-12-24T15:17:02.776Z,9.19
2022-12-24T15:19:35.821Z,9.18
2022-12-24T15:22:04.025Z,8.71
2022-12-24T15:24:36.454Z,8.83
2022-12-24T15:27:17.265Z,8.69
2022-12-24T15:29:46.730Z,8.56
2022-12-24T15:32:15.830Z,8.37
2022-12-24T15:34:47.918Z,8.23
2022-12-24T15:37:37.105Z,8.13
2022-12-24T15:40:19.502Z,7.99
2022-12-24T15:42:46.377Z,7.83
2022-12-24T15:45:23.200Z,7.68
2022-12-24T15:47:57.495Z,7.56
2022-12-24T15:50:35.580Z,7.50
2022-12-24T15:53:24.743Z,7.48
2022-12-24T15:56:06.653Z,7.35
2022-12-24T15:58:36.205Z,7.07
2022-12-24T16:01:28.220Z,7.00
2022-12-24T16:03:58.332Z,7.03
2022-12-24T16:06:25.776Z,6.95
2022-12-24T16:08:52.286Z,6.30
2022-12-24T16:11:24.702Z,6.89
2022-12-24T16:13:51.171Z,6.87
2022-12-24T16:16:31.325Z,6.13
2022-12-24T16:18:59.724Z,6.80
2022-12-24T16:21:31.704Z,6.79
2022-12-24T16:24:26.511Z,6.77
2022-12-24T16:26:53.745Z,6.69
2022-12-24T16:29:20.529Z,6.20
2022-12-24T16:31:51.470Z,6.27
2022-12-24T16:34:18.504Z,6.63
2022-12-24T16:36:46.367Z,6.83
2022-12-24T16:39:24.982Z,6.77
2022-12-24T16:42:11.576Z,6.76
2022-12-24T16:44:38.716Z,6.79
2022-12-24T16:47:24.135Z,6.81
2022-12-24T16:49:51.258Z,6.84
2022-12-24T16:52:23.681Z,6.32
2022-12-24T16:54:50.666Z,6.46
2022-12-24T16:57:17.631Z,6.19
2022-12-24T16:59:44.556Z,6.50
2022-12-24T17:02:14.911Z,6.34
2022-12-24T17:04:42.798Z,6.36
2022-12-24T17:07:14.078Z,6.81
2022-12-24T17:09:41.038Z,6.83
2022-12-24T17:12:07.852Z,6.76
2022-12-24T17:14:34.416Z,6.62
2022-12-24T17:17:00.932Z,6.73
2022-12-24T17:19:27.403Z,6.71
2022-12-24T17:21:53.845Z,6.69
2022-12-24T17:24:20.321Z,6.70
2022-12-24T17:26:46.795Z,6.70
2022-12-24T17:29:13.318Z,6.67
2022-12-24T17:31:40.774Z,6.12
2022-12-24T17:34:07.374Z,6.51
2022-12-24T17:36:34.487Z,6.10
2022-12-24T17:39:01.111Z,6.68
2022-12-24T17:41:27.740Z,6.66
2022-12-24T17:43:54.285Z,6.68
2022-12-24T17:46:22.805Z,6.17
2022-12-24T17:48:52.845Z,6.35
2022-12-24T17:51:22.565Z,6.10
2022-12-24T17:53:50.265Z,6.34
2022-12-24T17:56:17.605Z,6.58
2022-12-24T17:58:45.675Z,6.57
2022-12-24T18:01:18.555Z,6.69
2022-12-24T18:03:46.000Z,6.59
2022-12-24T18:06:13.558Z,6.78
2022-12-24T18:08:41.516Z,6.79
2022-12-24T18:11:20.077Z,6.76
2022-12-24T18:13:47.817Z,6.74
2022-12-24T18:16:14.333Z,6.71
2022-12-24T18:18:40.874Z,6.61
2022-12-24T18:21:07.447Z,6.26
2022-12-24T18:23:33.963Z,6.03
2022-12-24T18:26:05.677Z,6.61
2022-12-24T18:28:32.655Z,6.41
2022-12-24T18:31:08.471Z,6.44
2022-12-24T18:33:36.014Z,6.43
2022-12-24T18:36:03.197Z,6.33
2022-12-24T18:38:30.283Z,5.78
2022-12-24T18:41:02.726Z,6.30
2022-12-24T18:43:29.257Z,6.37
2022-12-24T18:45:55.744Z,6.36
2022-12-24T18:48:22.278Z,6.15
2022-12-24T18:50:55.443Z,5.79
2022-12-24T18:53:21.952Z,6.36
2022-12-24T18:55:48.448Z,6.30
2022-12-24T18:58:14.937Z,6.30
2022-12-24T19:00:41.475Z,5.98
2022-12-24T19:03:08.182Z,6.27
2022-12-24T19:05:35.258Z,6.36
2022-12-24T19:08:10.966Z,6.25
2022-12-24T19:10:48.414Z,6.27
2022-12-24T19:13:14.925Z,6.36
2022-12-24T19:15:41.969Z,6.26
2022-12-24T19:18:08.515Z,6.25
2022-12-24T19:20:38.568Z,6.30
2022-12-24T19:23:06.877Z,6.30
2022-12-24T19:25:34.268Z,6.23
2022-12-24T19:28:01.720Z,5.87
2022-12-24T19:30:28.224Z,6.35
2022-12-24T19:32:54.678Z,6.33
2022-12-24T19:35:21.170Z,6.40
2022-12-24T19:37:47.647Z,5.79
2022-12-24T19:40:14.247Z,6.44
2022-12-24T19:42:40.751Z,6.40
2022-12-24T19:45:08.265Z,6.53
2022-12-24T19:47:34.717Z,6.28
2022-12-24T19:50:01.170Z,6.59
2022-12-24T19:52:27.638Z,6.07
2022-12-24T19:54:54.143Z,6.02
2022-12-24T19:57:20.812Z,6.68
2022-12-24T19:59:47.252Z,6.68
2022-12-24T20:02:13.961Z,6.53
2022-12-24T20:04:40.721Z,6.53
2022-12-24T20:07:07.327Z,6.86
2022-12-24T20:09:34.011Z,6.28
2022-12-24T20:12:01.053Z,6.66
2022-12-24T20:14:28.580Z,6.88
2022-12-24T20:16:55.474Z,7.00
2022-12-24T20:19:22.363Z,7.02
2022-12-24T20:21:48.951Z,7.07
2022-12-24T20:24:15.626Z,7.13
2022-12-24T20:26:42.391Z,6.77
2022-12-24T20:29:10.604Z,7.10
2022-12-24T20:31:38.030Z,7.49
2022-12-24T20:34:07.279Z,7.09
2022-12-24T20:36:34.816Z,7.28
2022-12-24T20:39:01.545Z,7.69
2022-12-24T20:41:29.721Z,7.74
2022-12-24T20:44:00.795Z,7.70
2022-12-24T20:46:27.892Z,7.76
2022-12-24T20:48:55.591Z,7.89
2022-12-24T20:51:25.342Z,8.01
2022-12-24T20:53:53.728Z,7.93
2022-12-24T20:56:20.811Z,8.02
2022-12-24T20:58:47.896Z,7.92
2022-12-24T21:01:20.751Z,7.55
2022-12-24T21:03:47.741Z,8.02
2022-12-24T21:06:17.666Z,7.69
2022-12-24T21:08:45.507Z,7.98
2022-12-24T21:11:30.631Z,7.91
2022-12-24T21:13:57.172Z,7.47
2022-12-24T21:16:23.860Z,7.91
2022-12-24T21:18:50.517Z,7.33
2022-12-24T21:21:17.594Z,7.76
2022-12-24T21:23:44.257Z,7.84
2022-12-24T21:26:10.872Z,7.35
2022-12-24T21:28:37.416Z,7.79
2022-12-24T21:31:10.330Z,7.88
2022-12-24T21:33:38.459Z,7.94
2022-12-24T21:36:06.446Z,7.50
2022-12-24T21:38:33.714Z,7.99
2022-12-24T21:41:09.609Z,7.80
2022-12-24T21:43:37.060Z,7.98
2022-12-24T21:46:12.023Z,7.55
2022-12-24T21:48:57.701Z,7.94
2022-12-24T21:51:25.510Z,7.85
2022-12-24T21:54:10.798Z,7.73
2022-12-24T21:56:57.595Z,7.47
2022-12-24T21:59:27.089Z,8.09
2022-12-24T22:01:54.687Z,8.03
2022-12-24T22:04:21.384Z,7.78
2022-12-24T22:07:06.437Z,7.99
2022-12-24T22:09:51.620Z,7.95
2022-12-24T22:12:18.309Z,7.87
2022-12-24T22:14:44.988Z,7.70
2022-12-24T22:17:11.548Z,7.71
2022-12-24T22:19:38.083Z,7.73
2022-12-24T22:22:04.632Z,7.43
2022-12-24T22:24:31.121Z,7.57
2022-12-24T22:26:57.936Z,7.54
2022-12-24T22:29:24.859Z,7.46
2022-12-24T22:31:51.390Z,7.61
2022-12-24T22:34:17.883Z,7.57
2022-12-24T22:36:44.321Z,7.49
2022-12-24T22:39:10.813Z,7.49
2022-12-24T22:41:37.312Z,7.29
2022-12-24T22:44:03.886Z,6.92
2022-12-24T22:46:30.413Z,7.29
2022-12-24T22:48:56.933Z,7.07
2022-12-24T22:51:23.498Z,7.21
2022-12-24T22:53:50.298Z,7.25
2022-12-24T22:56:20.946Z,7.07
2022-12-24T22:58:54.398Z,7.23
2022-12-24T23:01:35.266Z,7.21
2022-12-24T23:04:02.406Z,7.36
2022-12-24T23:06:29.352Z,7.29
2022-12-24T23:08:55.915Z,7.42
2022-12-24T23:11:22.545Z,7.27
2022-12-24T23:14:07.624Z,7.42
2022-12-24T23:16:34.162Z,7.41
2022-12-24T23:19:01.993Z,7.19
2022-12-24T23:21:29.336Z,7.05
2022-12-24T23:24:00.519Z,6.98
2022-12-24T23:26:28.794Z,7.25
2022-12-24T23:28:56.134Z,7.61
2022-12-24T23:31:23.810Z,7.62
2022-12-24T23:33:50.512Z,7.66
2022-12-24T23:36:17.580Z,7.75
2022-12-24T23:38:44.152Z,7.78
2022-12-24T23:41:11.466Z,7.87
2022-12-24T23:43:38.164Z,7.90
2022-12-24T23:46:04.976Z,7.89
2022-12-24T23:48:31.472Z,8.00
2022-12-24T23:51:06.858Z,8.02
2022-12-24T23:53:33.550Z,8.14
2022-12-24T23:56:00.355Z,8.28
2022-12-24T23:58:27.263Z,8.34
